createdAt,value
2019-02-23T00:02:01.158Z,7.93
2019-02-23T00:04:29.988Z,7.90
2019-02-23T00:06:59.006Z,8.13
2019-02-23T00:09:27.888Z,8.17
2019-02-23T00:11:56.924Z,7.97
2019-02-23T00:14:25.794Z,8.33
2019-02-23T00:16:54.778Z,7.80
2019-02-23T00:19:25.043Z,8.83
2019-02-23T00:21:54.357Z,8.47
2019-02-23T00:24:23.380Z,8.97
2019-02-23T00:26:52.245Z,9.38
2019-02-23T00:29:21.360Z,9.37
2019-02-23T00:31:50.256Z,9.03
2019-02-23T00:34:19.341Z,9.40
2019-02-23T00:36:48.277Z,8.90
2019-02-23T00:39:17.120Z,9.07
2019-02-23T00:41:46.035Z,9.13
2019-02-23T00:44:14.879Z,8.57
2019-02-23T00:46:43.936Z,9.13
2019-02-23T00:49:12.873Z,10.53
2019-02-23T00:51:41.785Z,9.73
2019-02-23T00:54:10.793Z,10.03
2019-02-23T00:56:39.689Z,8.90
2019-02-23T00:59:08.661Z,10.13
2019-02-23T01:01:37.620Z,10.20
2019-02-23T01:04:06.620Z,9.47
2019-02-23T01:06:35.712Z,9.63
2019-02-23T01:09:05.151Z,10.37
2019-02-23T01:11:34.039Z,9.97
2019-02-23T01:14:03.468Z,10.53
2019-02-23T01:16:32.547Z,9.17
2019-02-23T01:19:01.320Z,9.43
2019-02-23T01:21:30.338Z,9.90
2019-02-23T01:23:59.263Z,9.60
2019-02-23T01:26:28.453Z,10.40
2019-02-23T01:28:57.389Z,9.48
2019-02-23T01:31:26.319Z,9.53
2019-02-23T01:33:55.405Z,10.67
2019-02-23T01:36:24.357Z,11.30
2019-02-23T01:38:53.353Z,9.73
2019-02-23T01:41:22.444Z,10.67
2019-02-23T01:43:51.309Z,10.23
2019-02-23T01:46:20.289Z,10.77
2019-02-23T01:48:49.442Z,10.50
2019-02-23T01:51:19.586Z,11.20
2019-02-23T01:53:48.667Z,10.83
2019-02-23T01:56:17.591Z,12.00
2019-02-23T01:58:46.568Z,11.00
2019-02-23T02:01:15.567Z,10.97
2019-02-23T02:03:44.585Z,11.13
2019-02-23T02:06:13.621Z,10.83
2019-02-23T02:08:42.813Z,12.03
2019-02-23T02:11:12.022Z,11.60
2019-02-23T02:13:41.235Z,10.37
2019-02-23T02:16:10.311Z,10.40
2019-02-23T02:18:39.539Z,10.90
2019-02-23T02:21:08.376Z,11.03
2019-02-23T02:23:37.180Z,10.63
2019-02-23T02:26:06.132Z,10.70
2019-02-23T02:28:35.024Z,11.07
2019-02-23T02:31:04.011Z,10.73
2019-02-23T02:33:33.042Z,10.60
2019-02-23T02:36:02.045Z,11.20
2019-02-23T02:38:30.989Z,9.50
2019-02-23T02:40:59.752Z,11.50
2019-02-23T02:43:28.692Z,11.30
2019-02-23T02:45:57.594Z,10.93
2019-02-23T02:48:26.482Z,10.27
2019-02-23T02:50:55.568Z,11.40
2019-02-23T02:53:24.382Z,12.43
2019-02-23T02:55:53.158Z,11.00
2019-02-23T02:58:22.083Z,11.23
2019-02-23T03:00:50.970Z,11.83
2019-02-23T03:03:19.830Z,10.80
2019-02-23T03:05:48.642Z,11.80
2019-02-23T03:08:17.755Z,11.67
2019-02-23T03:10:46.705Z,11.23
2019-02-23T03:13:15.771Z,11.17
2019-02-23T03:15:44.556Z,10.57
2019-02-23T03:18:13.492Z,10.85
2019-02-23T03:20:42.373Z,12.00
2019-02-23T03:23:11.196Z,11.87
2019-02-23T03:25:40.103Z,10.27
2019-02-23T03:28:08.964Z,10.93
2019-02-23T03:30:37.842Z,10.27
2019-02-23T03:33:06.841Z,11.87
2019-02-23T03:35:35.761Z,11.47
2019-02-23T03:38:05.435Z,10.93
2019-02-23T03:40:34.733Z,11.48
2019-02-23T03:43:03.779Z,10.60
2019-02-23T03:45:32.721Z,11.97
2019-02-23T03:48:01.650Z,12.60
2019-02-23T03:50:30.491Z,11.53
2019-02-23T03:52:59.549Z,11.90
2019-02-23T03:55:28.547Z,11.97
2019-02-23T03:57:57.463Z,13.33
2019-02-23T04:00:26.459Z,11.43
2019-02-23T04:02:55.365Z,12.50
2019-02-23T04:05:24.275Z,10.80
2019-02-23T04:07:53.257Z,12.27
2019-02-23T04:10:24.880Z,12.63
2019-02-23T04:12:53.806Z,12.23
2019-02-23T04:15:22.720Z,11.33
2019-02-23T04:17:51.642Z,12.07
2019-02-23T04:20:20.682Z,12.07
2019-02-23T04:22:49.722Z,12.03
2019-02-23T04:25:18.705Z,12.90
2019-02-23T04:27:47.644Z,11.30
2019-02-23T04:30:16.599Z,13.08
2019-02-23T04:32:45.659Z,13.23
2019-02-23T04:35:14.851Z,13.00
2019-02-23T04:37:43.881Z,12.07
2019-02-23T04:40:12.876Z,12.40
2019-02-23T04:42:41.986Z,12.67
2019-02-23T04:45:12.168Z,13.93
2019-02-23T04:47:41.209Z,12.33
2019-02-23T04:50:10.348Z,13.77
2019-02-23T04:52:39.394Z,13.40
2019-02-23T04:55:08.430Z,13.20
2019-02-23T04:57:37.496Z,12.73
2019-02-23T05:00:07.679Z,12.50
2019-02-23T05:02:38.252Z,14.13
2019-02-23T05:05:08.271Z,12.80
2019-02-23T05:07:37.307Z,13.17
2019-02-23T05:10:06.649Z,13.37
2019-02-23T05:12:35.684Z,14.00
2019-02-23T05:15:06.764Z,13.30
2019-02-23T05:17:35.831Z,12.97
2019-02-23T05:20:05.233Z,14.17
2019-02-23T05:22:34.354Z,14.33
2019-02-23T05:25:06.354Z,14.87
2019-02-23T05:27:35.645Z,14.73
2019-02-23T05:30:06.478Z,14.60
2019-02-23T05:32:36.803Z,15.40
2019-02-23T05:35:06.464Z,14.07
2019-02-23T05:37:35.411Z,15.23
2019-02-23T05:40:06.053Z,16.43
2019-02-23T05:42:38.183Z,14.43
2019-02-23T05:45:07.386Z,13.90
2019-02-23T05:47:37.614Z,14.77
2019-02-23T05:50:08.807Z,15.80
2019-02-23T05:52:37.642Z,16.10
2019-02-23T05:55:10.054Z,15.93
2019-02-23T05:57:40.600Z,15.03
2019-02-23T06:00:10.822Z,14.93
2019-02-23T06:02:44.778Z,16.17
2019-02-23T06:05:12.397Z,16.30
2019-02-23T06:07:43.873Z,15.60
2019-02-23T06:10:14.564Z,15.53
2019-02-23T06:12:45.446Z,17.42
2019-02-23T06:15:15.770Z,16.53
2019-02-23T06:17:44.826Z,16.50
2019-02-23T06:20:15.401Z,15.67
2019-02-23T06:22:46.941Z,16.87
2019-02-23T06:25:18.313Z,16.77
2019-02-23T06:27:48.525Z,16.13
2019-02-23T06:30:18.514Z,16.57
2019-02-23T06:32:48.753Z,15.90
2019-02-23T06:35:17.715Z,17.43
2019-02-23T06:37:46.731Z,16.80
2019-02-23T06:40:15.791Z,15.73
2019-02-23T06:42:44.730Z,16.70
2019-02-23T06:45:13.770Z,18.10
2019-02-23T06:47:44.389Z,16.60
2019-02-23T06:50:13.509Z,17.23
2019-02-23T06:52:42.581Z,16.80
2019-02-23T06:55:11.619Z,18.47
2019-02-23T06:57:42.303Z,16.77
2019-02-23T07:00:13.855Z,15.93
2019-02-23T07:02:42.945Z,17.10
2019-02-23T07:05:12.021Z,17.27
2019-02-23T07:07:41.104Z,16.50
2019-02-23T07:10:11.493Z,16.33
2019-02-23T07:12:42.070Z,18.07
2019-02-23T07:15:11.767Z,18.20
2019-02-23T07:17:40.867Z,17.33
2019-02-23T07:20:11.080Z,16.60
2019-02-23T07:22:40.238Z,16.90
2019-02-23T07:25:09.442Z,16.87
2019-02-23T07:27:38.471Z,18.07
2019-02-23T07:30:10.136Z,17.33
2019-02-23T07:32:41.248Z,17.13
2019-02-23T07:35:15.273Z,17.37
2019-02-23T07:37:49.335Z,17.87
2019-02-23T07:40:18.423Z,17.40
2019-02-23T07:42:48.871Z,17.07
2019-02-23T07:45:18.181Z,15.60
2019-02-23T07:47:48.059Z,17.70
2019-02-23T07:50:17.098Z,16.70
2019-02-23T07:52:48.226Z,15.33
2019-02-23T07:55:17.247Z,16.10
2019-02-23T07:57:46.330Z,15.50
2019-02-23T08:00:16.849Z,15.67
2019-02-23T08:02:45.990Z,16.63
2019-02-23T08:05:15.157Z,17.80
2019-02-23T08:07:44.237Z,15.70
2019-02-23T08:10:14.435Z,16.77
2019-02-23T08:12:43.483Z,16.30
2019-02-23T08:15:13.885Z,16.93
2019-02-23T08:17:42.823Z,16.47
2019-02-23T08:20:13.410Z,17.20
2019-02-23T08:22:43.697Z,16.60
2019-02-23T08:25:12.944Z,16.67
2019-02-23T08:27:42.726Z,17.97
2019-02-23T08:30:15.560Z,18.27
2019-02-23T08:32:44.657Z,17.83
2019-02-23T08:35:13.706Z,17.37
2019-02-23T08:37:42.921Z,17.27
2019-02-23T08:40:12.411Z,18.27
2019-02-23T08:42:41.455Z,17.30
2019-02-23T08:45:10.672Z,17.83
2019-02-23T08:47:42.362Z,16.48
2019-02-23T08:50:14.253Z,18.40
2019-02-23T08:52:49.335Z,17.50
2019-02-23T08:55:14.181Z,15.83
2019-02-23T08:57:44.513Z,14.10
2019-02-23T09:00:15.262Z,17.20
2019-02-23T09:02:48.243Z,15.83
2019-02-23T09:05:18.679Z,14.87
2019-02-23T09:07:50.810Z,15.53
2019-02-23T09:10:22.939Z,16.55
2019-02-23T09:12:52.101Z,15.30
2019-02-23T09:15:22.977Z,16.83
2019-02-23T09:17:52.234Z,16.33
2019-02-23T09:20:29.098Z,16.50
2019-02-23T09:23:00.076Z,15.97
2019-02-23T09:25:24.341Z,15.47
2019-02-23T09:27:54.789Z,16.57
2019-02-23T09:30:26.969Z,15.73
2019-02-23T09:32:56.286Z,15.93
2019-02-23T09:35:29.122Z,16.30
2019-02-23T09:37:58.397Z,15.33
2019-02-23T09:40:27.570Z,15.63
2019-02-23T09:42:56.851Z,17.37
2019-02-23T09:45:26.216Z,16.63
2019-02-23T09:47:55.486Z,16.43
2019-02-23T09:50:24.681Z,15.27
2019-02-23T09:52:53.845Z,15.17
2019-02-23T09:55:22.945Z,14.80
2019-02-23T09:57:52.511Z,15.73
2019-02-23T10:00:21.615Z,14.93
2019-02-23T10:02:50.902Z,14.43
2019-02-23T10:05:21.609Z,15.83
2019-02-23T10:07:50.688Z,14.77
2019-02-23T10:10:19.717Z,13.87
2019-02-23T10:12:48.881Z,15.43
2019-02-23T10:15:18.051Z,14.63
2019-02-23T10:17:48.445Z,15.73
2019-02-23T10:20:17.569Z,15.33
2019-02-23T10:22:46.734Z,15.03
2019-02-23T10:25:18.055Z,15.10
2019-02-23T10:27:48.261Z,15.03
2019-02-23T10:30:18.829Z,15.90
2019-02-23T10:32:47.811Z,14.73
2019-02-23T10:35:16.739Z,15.00
2019-02-23T10:37:45.550Z,14.87
2019-02-23T10:40:14.748Z,15.07
2019-02-23T10:42:43.766Z,14.80
2019-02-23T10:45:13.105Z,14.58
2019-02-23T10:47:42.023Z,14.60
2019-02-23T10:50:11.098Z,14.40
2019-02-23T10:52:40.074Z,13.97
2019-02-23T10:55:10.188Z,14.73
2019-02-23T10:57:39.215Z,15.07
2019-02-23T11:00:14.785Z,15.03
2019-02-23T11:02:43.748Z,14.47
2019-02-23T11:05:12.916Z,14.03
2019-02-23T11:07:41.981Z,12.23
2019-02-23T11:10:11.297Z,12.67
2019-02-23T11:12:40.352Z,11.93
2019-02-23T11:15:10.512Z,11.97
2019-02-23T11:17:39.572Z,12.73
2019-02-23T11:20:10.103Z,12.10
2019-02-23T11:22:39.285Z,12.53
2019-02-23T11:25:08.803Z,12.87
2019-02-23T11:27:38.737Z,12.63
2019-02-23T11:30:08.972Z,12.37
2019-02-23T11:32:38.026Z,12.57
2019-02-23T11:35:07.770Z,11.20
2019-02-23T11:37:36.794Z,12.37
2019-02-23T11:40:06.564Z,11.70
2019-02-23T11:42:35.500Z,13.23
2019-02-23T11:45:04.732Z,10.50
2019-02-23T11:47:33.768Z,10.53
2019-02-23T11:50:02.727Z,10.83
2019-02-23T11:52:31.630Z,10.30
2019-02-23T11:55:00.571Z,9.97
2019-02-23T11:57:29.629Z,11.43
2019-02-23T11:59:58.468Z,10.00
2019-02-23T12:02:27.379Z,12.33
2019-02-23T12:04:56.369Z,10.83
2019-02-23T12:07:25.354Z,9.87
2019-02-23T12:09:54.246Z,9.77
2019-02-23T12:12:23.233Z,10.23
2019-02-23T12:14:52.148Z,9.90
2019-02-23T12:17:21.246Z,9.40
2019-02-23T12:19:50.062Z,9.10
2019-02-23T12:22:19.035Z,8.93
2019-02-23T12:24:48.100Z,8.45
2019-02-23T12:27:17.011Z,9.10
2019-02-23T12:29:45.986Z,7.87
2019-02-23T12:32:15.019Z,9.40
2019-02-23T12:34:43.880Z,9.50
2019-02-23T12:37:12.915Z,9.40
2019-02-23T12:39:41.850Z,9.30
2019-02-23T12:42:10.764Z,17.87
2019-02-23T12:44:39.576Z,8.87
2019-02-23T12:47:08.482Z,8.77
2019-02-23T12:49:37.428Z,9.07
2019-02-23T12:52:06.431Z,8.77
2019-02-23T12:54:35.425Z,8.83
2019-02-23T12:57:04.407Z,9.00
2019-02-23T12:59:33.466Z,9.77
2019-02-23T13:02:02.339Z,8.83
2019-02-23T13:04:31.541Z,8.00
2019-02-23T13:07:00.302Z,8.33
2019-02-23T13:09:32.034Z,9.00
2019-02-23T13:12:14.371Z,9.20
2019-02-23T13:15:00.667Z,8.23
2019-02-23T13:17:58.696Z,7.90
2019-02-23T13:21:11.968Z,8.57
2019-02-23T13:24:07.101Z,7.43
2019-02-23T13:27:16.616Z,8.50
2019-02-23T13:30:21.784Z,8.13
2019-02-23T13:33:33.062Z,8.33
2019-02-23T13:36:51.914Z,8.10
2019-02-23T13:39:33.138Z,8.30
2019-02-23T13:42:31.995Z,7.50
2019-02-23T13:45:25.125Z,7.03
2019-02-23T13:48:31.183Z,6.87
2019-02-23T13:51:32.941Z,8.07
2019-02-23T13:54:21.110Z,7.90
2019-02-23T13:57:11.241Z,8.30
2019-02-23T14:00:21.625Z,7.93
2019-02-23T14:03:25.753Z,7.97
2019-02-23T14:06:14.433Z,7.73
2019-02-23T14:09:45.955Z,6.40
2019-02-23T14:12:41.400Z,6.67
2019-02-23T14:15:40.429Z,7.50
2019-02-23T14:18:36.208Z,7.00
2019-02-23T14:21:34.454Z,7.00
2019-02-23T14:24:38.421Z,7.47
2019-02-23T14:27:38.652Z,7.40
2019-02-23T14:31:04.067Z,6.63
2019-02-23T14:34:00.994Z,6.03
2019-02-23T14:36:42.583Z,5.43
2019-02-23T14:39:42.907Z,5.87
2019-02-23T14:42:20.586Z,5.92
2019-02-23T14:45:25.663Z,5.87
2019-02-23T14:48:32.843Z,5.53
2019-02-23T14:51:23.899Z,5.87
2019-02-23T14:54:04.712Z,6.10
2019-02-23T14:57:17.237Z,6.60
2019-02-23T15:00:07.693Z,6.33
2019-02-23T15:03:19.514Z,6.63
2019-02-23T15:06:10.744Z,6.70
2019-02-23T15:08:52.669Z,5.00
2019-02-23T15:12:07.114Z,3.97
2019-02-23T15:15:25.047Z,5.90
2019-02-23T15:18:29.828Z,6.73
2019-02-23T15:21:25.997Z,5.70
2019-02-23T15:24:31.257Z,5.07
2019-02-23T15:27:37.721Z,4.83
2019-02-23T15:30:50.888Z,6.80
2019-02-23T15:34:15.172Z,5.83
2019-02-23T15:37:08.921Z,5.97
2019-02-23T15:40:13.644Z,6.07
2019-02-23T15:43:25.708Z,5.40
2019-02-23T15:46:05.713Z,5.40
2019-02-23T15:49:17.515Z,5.10
2019-02-23T15:51:46.444Z,5.13
2019-02-23T15:54:15.476Z,5.10
2019-02-23T15:56:44.374Z,6.10
2019-02-23T15:59:13.297Z,6.20
2019-02-23T16:01:42.263Z,5.47
2019-02-23T16:04:11.207Z,6.23
2019-02-23T16:06:40.168Z,5.43
2019-02-23T16:09:09.163Z,5.33
2019-02-23T16:11:38.142Z,6.50
2019-02-23T16:14:07.177Z,6.00
2019-02-23T16:16:36.147Z,5.53
2019-02-23T16:19:05.422Z,5.97
2019-02-23T16:21:34.290Z,5.10
2019-02-23T16:24:03.250Z,5.73
2019-02-23T16:26:32.306Z,5.43
2019-02-23T16:29:01.187Z,5.57
2019-02-23T16:31:30.205Z,5.90
2019-02-23T16:33:59.108Z,5.70
2019-02-23T16:36:28.077Z,5.93
2019-02-23T16:38:57.142Z,6.13
2019-02-23T16:41:26.104Z,6.10
2019-02-23T16:43:54.943Z,6.00
2019-02-23T16:46:23.937Z,6.70
2019-02-23T16:48:52.818Z,5.50
2019-02-23T16:51:21.826Z,6.37
2019-02-23T16:53:50.662Z,5.93
2019-02-23T16:56:19.656Z,6.67
2019-02-23T16:58:48.771Z,5.53
2019-02-23T17:01:17.669Z,6.30
2019-02-23T17:03:46.673Z,6.00
2019-02-23T17:06:15.569Z,6.60
2019-02-23T17:08:44.829Z,6.47
2019-02-23T17:11:13.852Z,5.73
2019-02-23T17:13:42.837Z,6.93
2019-02-23T17:16:11.696Z,6.40
2019-02-23T17:18:40.679Z,6.47
2019-02-23T17:21:09.930Z,7.00
2019-02-23T17:23:40.160Z,8.03
2019-02-23T17:26:09.277Z,7.23
2019-02-23T17:28:38.233Z,7.77
2019-02-23T17:31:07.037Z,7.30
2019-02-23T17:33:36.470Z,7.10
2019-02-23T17:36:05.508Z,7.17
2019-02-23T17:38:35.642Z,6.97
2019-02-23T17:41:05.017Z,7.33
2019-02-23T17:43:33.819Z,7.13
2019-02-23T17:46:02.730Z,8.00
2019-02-23T17:51:00.573Z,6.80
2019-02-23T17:53:29.383Z,8.10
2019-02-23T17:55:58.307Z,7.17
2019-02-23T17:58:27.311Z,7.57
2019-02-23T18:00:57.070Z,6.90
2019-02-23T18:03:25.968Z,7.53
2019-02-23T18:05:54.851Z,8.05
2019-02-23T18:08:23.734Z,7.80
2019-02-23T18:10:52.774Z,8.97
2019-02-23T18:13:21.634Z,8.07
2019-02-23T18:15:50.551Z,7.43
2019-02-23T18:18:19.546Z,8.70
2019-02-23T18:20:48.539Z,7.90
2019-02-23T18:23:17.415Z,8.17
2019-02-23T18:25:46.320Z,7.90
2019-02-23T18:28:15.164Z,7.43
2019-02-23T18:30:44.140Z,7.77
2019-02-23T18:33:13.091Z,7.13
2019-02-23T18:35:41.888Z,8.27
2019-02-23T18:38:10.802Z,8.57
2019-02-23T18:40:39.576Z,9.00
2019-02-23T18:43:08.570Z,29.47
2019-02-23T18:45:37.561Z,9.03
2019-02-23T18:48:06.356Z,9.53
2019-02-23T18:50:35.327Z,9.70
2019-02-23T18:53:04.283Z,8.53
2019-02-23T18:55:40.894Z,9.20
2019-02-23T18:58:03.734Z,8.97
2019-02-23T19:00:32.759Z,8.60
2019-02-23T19:03:01.611Z,8.90
2019-02-23T19:05:30.658Z,8.90
2019-02-23T19:07:59.503Z,8.17
2019-02-23T19:10:28.338Z,9.53
2019-02-23T19:12:57.292Z,8.30
2019-02-23T19:15:26.177Z,8.23
2019-02-23T19:17:55.259Z,8.70
2019-02-23T19:20:24.164Z,9.17
2019-02-23T19:22:53.143Z,9.03
2019-02-23T19:25:22.048Z,9.67
2019-02-23T19:27:51.107Z,9.33
2019-02-23T19:30:20.589Z,8.90
2019-02-23T19:32:49.660Z,9.53
2019-02-23T19:35:18.760Z,8.90
2019-02-23T19:37:47.811Z,8.23
2019-02-23T19:40:16.882Z,8.43
2019-02-23T19:42:45.826Z,8.63
2019-02-23T19:45:14.862Z,9.83
2019-02-23T19:47:43.694Z,9.90
2019-02-23T19:50:19.313Z,9.87
2019-02-23T19:52:48.305Z,9.33
2019-02-23T19:55:17.543Z,10.13
2019-02-23T19:57:46.572Z,9.47
2019-02-23T20:00:15.625Z,9.07
2019-02-23T20:02:44.526Z,9.37
2019-02-23T20:05:13.571Z,10.10
2019-02-23T20:07:42.440Z,9.63
2019-02-23T20:10:11.555Z,9.87
2019-02-23T20:12:40.760Z,9.93
2019-02-23T20:15:10.368Z,9.07
2019-02-23T20:17:49.062Z,9.50
2019-02-23T20:20:18.013Z,10.77
2019-02-23T20:22:46.986Z,10.03
2019-02-23T20:25:15.943Z,9.73
2019-02-23T20:27:44.852Z,10.70
2019-02-23T20:30:13.843Z,10.03
2019-02-23T20:32:42.787Z,10.10
2019-02-23T20:35:11.858Z,10.13
2019-02-23T20:37:40.852Z,10.63
2019-02-23T20:40:09.868Z,10.37
2019-02-23T20:42:38.763Z,11.27
2019-02-23T20:45:07.720Z,11.33
2019-02-23T20:47:36.745Z,10.43
2019-02-23T20:50:06.505Z,10.30
2019-02-23T20:52:35.399Z,10.23
2019-02-23T20:55:04.647Z,10.60
2019-02-23T20:57:33.658Z,10.23
2019-02-23T21:00:02.763Z,9.73
2019-02-23T21:02:31.809Z,10.33
2019-02-23T21:05:00.823Z,9.60
2019-02-23T21:07:29.665Z,9.80
2019-02-23T21:09:58.585Z,11.07
2019-02-23T21:12:28.555Z,10.10
2019-02-23T21:14:57.528Z,10.40
2019-02-23T21:17:26.378Z,10.07
2019-02-23T21:19:55.315Z,10.63
2019-02-23T21:22:24.219Z,10.67
2019-02-23T21:24:53.157Z,9.20
2019-02-23T21:27:22.053Z,11.22
2019-02-23T21:29:51.056Z,10.00
2019-02-23T21:32:20.071Z,10.07
2019-02-23T21:34:49.143Z,9.73
2019-02-23T21:37:17.979Z,10.43
2019-02-23T21:39:46.940Z,9.00
2019-02-23T21:42:15.948Z,10.07
2019-02-23T21:44:44.919Z,9.60
2019-02-23T21:47:13.826Z,9.50
2019-02-23T21:49:42.830Z,9.83
2019-02-23T21:52:11.856Z,9.07
2019-02-23T21:54:40.989Z,9.87
2019-02-23T21:57:09.863Z,9.90
2019-02-23T21:59:38.788Z,9.93
2019-02-23T22:02:07.691Z,8.70
2019-02-23T22:04:36.792Z,9.73
2019-02-23T22:07:05.840Z,9.60
2019-02-23T22:09:34.877Z,9.57
2019-02-23T22:12:03.759Z,9.27
2019-02-23T22:14:32.583Z,9.60
2019-02-23T22:17:01.461Z,9.40
2019-02-23T22:19:31.703Z,8.60
2019-02-23T22:22:00.661Z,9.40
2019-02-23T22:24:29.604Z,8.53
2019-02-23T22:26:58.505Z,9.07
2019-02-23T22:29:27.415Z,8.33
2019-02-23T22:31:56.328Z,9.00
2019-02-23T22:34:25.298Z,9.27
2019-02-23T22:36:54.215Z,8.43
2019-02-23T22:39:23.104Z,9.80
2019-02-23T22:41:52.062Z,8.97
2019-02-23T22:44:20.991Z,8.80
2019-02-23T22:46:49.915Z,9.90
2019-02-23T22:49:18.797Z,9.13
2019-02-23T22:51:47.681Z,8.80
2019-02-23T22:54:16.830Z,8.93
2019-02-23T22:56:46.036Z,9.47
2019-02-23T22:59:15.041Z,10.43
2019-02-23T23:01:44.055Z,9.27
2019-02-23T23:04:12.921Z,9.67
2019-02-23T23:06:41.931Z,9.33
2019-02-23T23:09:14.826Z,10.33
2019-02-23T23:11:43.678Z,8.90
2019-02-23T23:14:12.668Z,8.87
2019-02-23T23:16:41.459Z,8.87
2019-02-23T23:19:10.371Z,9.37
2019-02-23T23:21:39.349Z,7.63
2019-02-23T23:24:08.256Z,9.67
2019-02-23T23:26:37.206Z,8.33
2019-02-23T23:29:06.197Z,8.90
2019-02-23T23:31:35.264Z,8.77
2019-02-23T23:34:04.117Z,8.50
2019-02-23T23:36:33.272Z,8.77
2019-02-23T23:39:02.067Z,8.47
2019-02-23T23:41:31.037Z,7.53
2019-02-23T23:43:59.849Z,8.70
2019-02-23T23:46:28.967Z,8.57
2019-02-23T23:48:57.744Z,8.53
2019-02-23T23:51:26.566Z,8.10
2019-02-23T23:53:55.410Z,8.07
2019-02-23T23:56:24.404Z,7.60
2019-02-23T23:58:53.343Z,8.00
